Time;durP1;ratioP1;P1;durP2;ratioP2;P2;SDS_P1;SDS_P2;PMS_P1;PMS_P2;Temp;Humidity;BMP_temperature;BMP_pressure;BME280_temperature;BME280_humidity;BME280_pressure;Samples;Min_cycle;Max_cycle;Signal;HPM_P1;HPM_P2
2022/04/06 00:02:52;;;;;;;30.67;9.40;;;;;;;9.38;100.00;100383.53;10381204;28;20421;-76
2022/04/06 00:07:53;;;;;;;22.98;7.88;;;;;;;9.40;100.00;100392.28;10379419;28;20061;-76
2022/04/06 00:12:53;;;;;;;27.40;8.90;;;;;;;9.51;100.00;100384.41;10378882;28;20037;-77
2022/04/06 00:17:53;;;;;;;22.10;7.70;;;;;;;9.57;100.00;100377.34;10375627;28;20046;-75
2022/04/06 00:22:54;;;;;;;13.98;6.63;;;;;;;9.62;100.00;100379.47;10376808;28;20070;-78
2022/04/06 00:27:54;;;;;;;24.33;6.38;;;;;;;9.62;100.00;100376.75;10379101;28;20037;-77
2022/04/06 00:32:55;;;;;;;15.82;6.05;;;;;;;9.65;100.00;100376.34;10377255;28;20496;-78
2022/04/06 00:37:56;;;;;;;12.48;5.38;;;;;;;9.67;100.00;100367.00;10377758;28;20120;-77
2022/04/06 00:42:56;;;;;;;22.48;5.13;;;;;;;9.73;100.00;100354.50;10379469;28;20462;-76
2022/04/06 00:47:57;;;;;;;8.05;4.60;;;;;;;9.75;100.00;100352.44;10377321;28;20068;-76
2022/04/06 00:52:57;;;;;;;10.57;4.90;;;;;;;9.72;100.00;100350.16;10377010;28;20124;-77
2022/04/06 00:57:58;;;;;;;14.05;3.60;;;;;;;9.67;100.00;100339.97;10358939;28;20033;-77
2022/04/06 01:02:58;;;;;;;10.45;5.30;;;;;;;9.69;100.00;100323.53;10376500;28;20029;-77
2022/04/06 01:08:01;;;;;;;9.65;3.78;;;;;;;9.66;100.00;100334.75;10376242;28;20123;-77
2022/04/06 01:13:02;;;;;;;6.93;4.00;;;;;;;9.65;100.00;100327.69;10377171;28;20496;-78
2022/04/06 01:18:02;;;;;;;15.43;4.60;;;;;;;9.57;100.00;100331.41;10358483;28;20037;-76
2022/04/06 01:23:04;;;;;;;15.27;3.83;;;;;;;9.49;100.00;100326.19;10376138;28;20038;-77
2022/04/06 01:28:04;;;;;;;15.60;5.38;;;;;;;9.41;100.00;100327.22;10359799;28;20042;-77
2022/04/06 01:33:06;;;;;;;17.33;6.03;;;;;;;9.38;100.00;100329.47;10375083;28;20061;-77
2022/04/06 01:38:06;;;;;;;6.43;3.72;;;;;;;9.41;100.00;100329.94;10377772;28;20121;-77
2022/04/06 01:43:06;;;;;;;12.68;4.50;;;;;;;9.40;100.00;100328.25;10377362;28;20098;-77
2022/04/06 01:48:07;;;;;;;15.25;5.60;;;;;;;9.34;100.00;100315.53;10378122;28;20049;-76
2022/04/06 01:53:07;;;;;;;11.15;4.45;;;;;;;9.38;100.00;100321.38;10373280;28;20472;-77
2022/04/06 01:58:08;;;;;;;14.82;4.32;;;;;;;9.37;100.00;100314.31;10373106;28;20061;-78
2022/04/06 02:03:08;;;;;;;8.18;3.35;;;;;;;9.36;100.00;100308.09;10375217;28;20168;-77
2022/04/06 02:08:08;;;;;;;3.40;2.70;;;;;;;9.31;100.00;100311.38;10374281;28;20406;-77
2022/04/06 02:13:09;;;;;;;9.88;3.45;;;;;;;9.25;100.00;100314.06;10372834;28;20033;-78
2022/04/06 02:18:09;;;;;;;4.50;3.22;;;;;;;9.16;100.00;100304.50;10372492;28;20481;-78
2022/04/06 02:23:10;;;;;;;7.95;2.47;;;;;;;9.17;100.00;100308.84;10372701;28;20474;-77
2022/04/06 02:28:10;;;;;;;8.98;2.92;;;;;;;9.10;100.00;100298.03;10373736;28;20164;-78
2022/04/06 02:33:11;;;;;;;10.00;4.22;;;;;;;9.02;100.00;100300.91;10372973;28;20536;-77
2022/04/06 02:38:11;;;;;;;11.63;3.33;;;;;;;8.83;100.00;100278.19;10373363;28;20065;-78
2022/04/06 02:43:12;;;;;;;6.22;2.47;;;;;;;8.64;100.00;100289.72;10372882;28;20038;-77
2022/04/06 02:48:13;;;;;;;5.32;2.60;;;;;;;8.49;100.00;100273.69;10355914;28;20091;-75
2022/04/06 02:53:14;;;;;;;4.95;2.13;;;;;;;8.43;100.00;100272.59;10371460;28;20069;-76
2022/04/06 02:58:15;;;;;;;5.57;3.10;;;;;;;8.41;100.00;100258.47;10378500;28;20038;-80
2022/04/06 03:03:15;;;;;;;14.02;3.78;;;;;;;8.34;100.00;100260.28;10379758;28;20084;-78
2022/04/06 03:08:17;;;;;;;6.97;2.25;;;;;;;8.38;100.00;100250.78;10380906;28;20041;-78
2022/04/06 03:13:17;;;;;;;3.78;2.20;;;;;;;8.37;100.00;100254.47;10380614;28;20040;-78
2022/04/06 03:18:18;;;;;;;9.45;2.42;;;;;;;8.36;100.00;100245.56;10379036;28;20501;-77
2022/04/06 03:23:18;;;;;;;17.33;4.18;;;;;;;8.36;100.00;100244.72;10380927;28;20037;-78
2022/04/06 03:28:19;;;;;;;6.90;2.58;;;;;;;8.37;100.00;100241.81;10379988;28;20113;-77
2022/04/06 03:33:20;;;;;;;10.65;2.47;;;;;;;8.32;100.00;100238.88;10378749;28;20068;-77
2022/04/06 03:38:20;;;;;;;20.60;3.30;;;;;;;8.45;100.00;100219.25;10379243;28;20517;-78
2022/04/06 03:43:21;;;;;;;7.93;4.38;;;;;;;8.65;100.00;100221.19;10377815;28;20044;-76
2022/04/06 03:48:22;;;;;;;17.95;4.47;;;;;;;8.65;100.00;100213.09;10379705;28;20034;-78
2022/04/06 03:53:22;;;;;;;11.55;3.95;;;;;;;8.54;100.00;100209.97;10377345;28;20029;-76
2022/04/06 03:58:23;;;;;;;17.65;5.00;;;;;;;8.31;100.00;100209.41;10378637;28;20041;-76
2022/04/06 04:03:23;;;;;;;25.33;6.05;;;;;;;8.16;100.00;100196.88;10377578;28;20034;-77
2022/04/06 04:08:26;;;;;;;10.15;5.65;;;;;;;8.23;100.00;100190.69;10376569;28;20045;-76
2022/04/06 04:13:26;;;;;;;18.15;5.88;;;;;;;8.34;100.00;100187.44;10380886;28;20564;-77
2022/04/06 04:18:27;;;;;;;8.95;4.07;;;;;;;8.45;100.00;100177.94;10380578;28;20108;-76
2022/04/06 04:23:27;;;;;;;19.88;4.82;;;;;;;8.57;100.00;100176.34;10377490;28;20062;-77
2022/04/06 04:28:28;;;;;;;5.47;2.63;;;;;;;8.67;100.00;100173.25;10377270;28;20108;-77
2022/04/06 04:33:28;;;;;;;11.02;4.75;;;;;;;8.73;100.00;100164.34;10375635;28;20100;-80
2022/04/06 04:38:28;;;;;;;10.27;3.50;;;;;;;8.78;100.00;100154.63;10377485;28;20034;-78
2022/04/06 04:43:29;;;;;;;14.43;3.72;;;;;;;8.79;100.00;100148.16;10359123;28;20042;-80
2022/04/06 04:48:30;;;;;;;14.63;4.65;;;;;;;8.85;100.00;100147.34;10375414;28;20060;-74
2022/04/06 04:53:33;;;;;;;12.70;5.25;;;;;;;8.90;100.00;100149.44;10377640;28;20430;-74
2022/04/06 04:58:34;;;;;;;15.45;4.45;;;;;;;8.90;100.00;100156.69;10376284;28;20066;-74
2022/04/06 05:03:34;;;;;;;21.73;4.45;;;;;;;8.88;100.00;100156.91;10375302;28;20038;-80
2022/04/06 05:08:35;;;;;;;17.55;4.07;;;;;;;8.90;100.00;100152.13;10376144;28;20038;-76
2022/04/06 05:13:36;;;;;;;10.75;4.15;;;;;;;8.95;100.00;100140.72;10376629;28;20424;-78
2022/04/06 05:18:36;;;;;;;18.58;5.05;;;;;;;8.93;100.00;100130.13;10325160;28;20389;-75
2022/04/06 05:23:37;;;;;;;15.50;4.25;;;;;;;8.98;100.00;100140.31;10375768;28;20071;-78
2022/04/06 05:28:37;;;;;;;6.60;2.30;;;;;;;8.99;100.00;100145.50;10375785;28;20061;-76
2022/04/06 05:33:38;;;;;;;16.67;3.65;;;;;;;9.00;100.00;100136.38;10374391;28;20041;-77
2022/04/06 05:38:38;;;;;;;15.95;4.10;;;;;;;9.03;100.00;100141.38;10374583;28;20042;-78
2022/04/06 05:43:38;;;;;;;13.20;3.92;;;;;;;9.05;100.00;100141.97;10373717;28;20042;-78
2022/04/06 05:48:39;;;;;;;7.40;2.97;;;;;;;9.13;100.00;100135.56;10373111;28;20361;-78
2022/04/06 05:53:39;;;;;;;6.65;3.03;;;;;;;9.15;100.00;100135.34;10373956;28;20053;-78
2022/04/06 05:58:41;;;;;;;12.35;2.97;;;;;;;9.16;100.00;100129.75;10372580;28;20125;-76
2022/04/06 06:03:41;;;;;;;20.17;4.30;;;;;;;9.16;100.00;100128.91;10374037;28;20091;-77
2022/04/06 06:08:41;;;;;;;21.65;4.38;;;;;;;9.17;100.00;100135.97;10373435;28;20359;-78
2022/04/06 06:13:42;;;;;;;12.13;4.05;;;;;;;9.18;100.00;100124.13;10372619;28;20088;-75
2022/04/06 06:18:42;;;;;;;8.60;3.72;;;;;;;9.26;100.00;100122.06;10371779;28;20053;-76
2022/04/06 06:23:43;;;;;;;7.07;2.75;;;;;;;9.38;100.00;100116.88;10373248;28;20062;-77
2022/04/06 06:28:44;;;;;;;10.80;3.08;;;;;;;9.44;100.00;100115.16;10372362;28;20424;-77
2022/04/06 06:33:44;;;;;;;5.55;3.25;;;;;;;9.47;100.00;100112.06;10379904;28;20033;-77
2022/04/06 06:38:44;;;;;;;12.23;4.15;;;;;;;9.41;100.00;100119.16;10381259;28;20125;-78
2022/04/06 06:43:48;;;;;;;17.08;4.75;;;;;;;9.18;100.00;100110.63;10379513;28;20552;-75
2022/04/06 06:48:49;;;;;;;10.85;3.88;;;;;;;8.95;100.00;100098.34;10380813;28;20038;-75
2022/04/06 06:53:49;;;;;;;19.30;4.53;;;;;;;8.82;100.00;100099.16;10379983;28;20042;-76
2022/04/06 06:58:50;;;;;;;15.68;4.82;;;;;;;8.77;100.00;100090.00;10382114;28;20038;-75
2022/04/06 07:03:50;;;;;;;10.70;4.15;;;;;;;8.81;100.00;100100.22;10380124;28;20037;-77
2022/04/06 07:08:53;;;;;;;12.23;4.63;;;;;;;8.85;100.00;100079.84;10347603;28;20029;-76
2022/04/06 07:13:53;;;;;;;6.97;3.63;;;;;;;8.85;100.00;100103.34;10385104;28;20046;-76
2022/04/06 07:18:53;;;;;;;20.23;4.18;;;;;;;8.83;100.00;100098.13;10378099;28;20060;-76
2022/04/06 07:23:55;;;;;;;8.93;2.65;;;;;;;8.75;100.00;100089.41;10362187;28;20104;-75
2022/04/06 07:28:58;;;;;;;22.48;5.25;;;;;;;8.59;100.00;100096.84;10379746;28;20210;-76
2022/04/06 07:33:58;;;;;;;12.63;4.50;;;;;;;8.56;100.00;100091.88;10378614;28;20157;-76
2022/04/06 07:39:03;;;;;;;24.77;4.60;;;;;;;8.65;100.00;100078.16;10379321;28;20536;-77
2022/04/06 07:44:04;;;;;;;16.98;5.13;;;;;;;8.71;100.00;100070.09;10377507;28;20038;-78
2022/04/06 07:49:06;;;;;;;19.35;5.32;;;;;;;8.79;100.00;100064.47;10379490;28;20052;-76
2022/04/06 07:54:06;;;;;;;20.63;5.35;;;;;;;8.90;100.00;100054.09;10378044;28;20074;-76
2022/04/06 07:59:07;;;;;;;11.07;5.57;;;;;;;8.92;100.00;100058.25;10377028;28;20065;-77
2022/04/06 08:04:07;;;;;;;16.38;5.15;;;;;;;9.04;100.00;100051.19;10378209;28;20369;-75
2022/04/06 08:09:08;;;;;;;9.63;5.13;;;;;;;9.06;100.00;100049.13;10378821;28;20041;-76
2022/04/06 08:14:08;;;;;;;17.77;6.18;;;;;;;9.04;100.00;100048.50;10378815;28;20033;-77
2022/04/06 08:19:09;;;;;;;33.88;6.82;;;;;;;9.04;100.00;100053.06;10378820;28;20421;-78
2022/04/06 08:24:09;;;;;;;23.38;6.78;;;;;;;9.03;100.00;100051.41;10378377;28;20129;-76
2022/04/06 08:29:10;;;;;;;25.35;5.45;;;;;;;9.04;100.00;100044.97;10379189;28;20034;-78
2022/04/06 08:34:10;;;;;;;21.92;6.53;;;;;;;9.05;100.00;100047.44;10376752;28;20163;-78
2022/04/06 08:39:11;;;;;;;16.85;4.82;;;;;;;9.03;100.00;100037.88;10378337;28;20070;-78
2022/04/06 08:44:11;;;;;;;19.52;5.43;;;;;;;9.08;100.00;100038.09;10375770;28;20484;-78
2022/04/06 08:49:12;;;;;;;7.75;5.18;;;;;;;9.13;100.00;100030.22;10378003;28;20378;-79
2022/04/06 08:54:12;;;;;;;17.42;6.72;;;;;;;9.30;100.00;100038.72;10359681;28;20050;-78
2022/04/06 08:59:12;;;;;;;23.92;5.85;;;;;;;9.46;100.00;100032.84;10343565;28;20030;-78
2022/04/06 09:04:13;;;;;;;26.73;7.47;;;;;;;9.46;100.00;100032.84;10378403;28;20053;-79
2022/04/06 09:09:19;;;;;;;21.60;7.07;;;;;;;9.59;100.00;100033.88;10374852;28;20034;-79
2022/04/06 09:14:30;;;;;;;19.95;6.05;;;;;;;9.63;100.00;100032.41;10361436;28;20025;-78
2022/04/06 09:19:31;;;;;;;10.20;5.30;;;;;;;9.89;100.00;100023.34;10375623;28;20049;-79
2022/04/06 09:24:31;;;;;;;19.17;6.90;;;;;;;9.99;100.00;100026.44;10379693;28;20038;-78
2022/04/06 09:29:35;;;;;;;14.25;6.47;;;;;;;10.12;100.00;100020.97;10379533;28;20083;-78
2022/04/06 09:34:35;;;;;;;18.20;7.00;;;;;;;10.34;100.00;100020.66;10374563;28;20041;-78
2022/04/06 09:39:48;;;;;;;23.60;5.45;;;;;;;10.44;100.00;100029.16;10376558;28;20072;-75
2022/04/06 09:50:29;;;;;;;14.98;4.75;;;;;;;11.17;100.00;100013.16;10374417;28;20140;-74
2022/04/06 09:55:30;;;;;;;10.93;6.13;;;;;;;11.44;100.00;100017.47;10374067;28;20049;-77
2022/04/06 10:00:30;;;;;;;20.38;5.45;;;;;;;11.66;100.00;100007.84;10356478;28;20072;-76
2022/04/06 10:05:31;;;;;;;14.35;4.75;;;;;;;11.27;100.00;100001.78;10376800;28;20040;-75
2022/04/06 10:10:32;;;;;;;15.10;4.53;;;;;;;10.99;100.00;99990.59;10370605;28;20096;-77
2022/04/06 10:15:39;;;;;;;11.07;4.82;;;;;;;11.07;100.00;99993.88;10388000;28;20103;-75
2022/04/06 10:20:44;;;;;;;11.52;4.05;;;;;;;11.05;100.00;99959.91;10370530;28;20053;-77
2022/04/06 10:26:06;;;;;;;8.93;3.40;;;;;;;11.25;100.00;99976.78;10386185;28;20033;-78
2022/04/06 10:31:12;;;;;;;7.88;3.72;;;;;;;11.51;100.00;99969.41;10387368;28;20049;-76
2022/04/06 10:36:23;;;;;;;13.00;3.58;;;;;;;11.71;100.00;99952.91;10388789;28;20466;-77
2022/04/06 10:41:24;;;;;;;14.82;4.25;;;;;;;11.95;100.00;99953.88;10370325;28;20061;-77
2022/04/06 10:46:40;;;;;;;11.15;3.90;;;;;;;11.75;100.00;99954.94;10386613;28;20124;-77
2022/04/06 10:51:42;;;;;;;6.93;3.50;;;;;;;11.53;100.00;99943.75;10385770;28;20124;-77
2022/04/06 10:56:46;;;;;;;10.27;3.40;;;;;;;11.49;100.00;99941.72;10385684;28;20271;-77
2022/04/06 11:01:48;;;;;;;11.32;2.78;;;;;;;11.38;100.00;99941.41;10386370;28;20120;-77
2022/04/06 11:06:56;;;;;;;5.50;2.95;;;;;;;11.36;100.00;99929.97;10384900;28;20428;-77
2022/04/06 11:12:21;;;;;;;5.50;3.92;;;;;;;11.09;100.00;99939.44;10371662;28;20040;-78
2022/04/06 11:17:42;;;;;;;16.48;3.42;;;;;;;11.06;100.00;99921.75;10385712;28;20033;-78
2022/04/06 11:22:44;;;;;;;4.95;2.45;;;;;;;11.05;100.00;99920.09;10381202;28;20516;-79
2022/04/06 11:27:45;;;;;;;13.38;3.75;;;;;;;11.10;100.00;99924.84;10380774;28;20069;-79
2022/04/06 11:32:59;;;;;;;6.55;3.28;;;;;;;10.91;100.00;99908.59;10378607;28;20030;-78
2022/04/06 11:38:00;;;;;;;7.88;4.20;;;;;;;11.00;100.00;99919.09;10381330;28;20026;-79
2022/04/06 11:43:06;;;;;;;6.22;2.80;;;;;;;10.94;100.00;99904.56;10382826;28;20034;-78
2022/04/06 11:48:15;;;;;;;3.70;2.50;;;;;;;10.74;100.00;99877.69;10379581;28;20057;-79
2022/04/06 11:53:17;;;;;;;3.63;3.13;;;;;;;10.48;100.00;99890.44;10380108;28;20129;-79
2022/04/06 11:58:48;;;;;;;12.75;3.00;;;;;;;10.44;100.00;99883.81;10378781;28;20129;-78
2022/04/06 12:03:49;;;;;;;6.13;4.10;;;;;;;10.57;100.00;99882.03;10364181;28;20050;-78
2022/04/06 12:08:49;;;;;;;5.68;4.45;;;;;;;10.45;100.00;99869.22;10377345;28;20501;-76
2022/04/06 12:13:49;;;;;;;14.43;4.75;;;;;;;10.60;100.00;99862.66;10360587;28;20062;-79
2022/04/06 12:18:50;;;;;;;13.52;6.07;;;;;;;10.58;100.00;99857.44;10377256;28;20470;-78
2022/04/06 12:23:52;;;;;;;5.13;3.85;;;;;;;10.59;100.00;99853.72;10360632;28;20044;-79
2022/04/06 12:28:59;;;;;;;9.60;5.13;;;;;;;10.58;100.00;99852.03;10377005;28;20124;-76
2022/04/06 12:34:00;;;;;;;5.20;3.72;;;;;;;10.60;100.00;99851.81;10377795;28;20048;-78
2022/04/06 12:39:01;;;;;;;7.15;4.10;;;;;;;10.65;100.00;99836.53;10376831;28;20489;-78
2022/04/06 12:44:06;;;;;;;10.30;3.75;;;;;;;10.67;100.00;99823.63;10377700;28;20458;-79
2022/04/06 12:49:16;;;;;;;4.72;4.22;;;;;;;10.61;100.00;99773.06;10378294;28;20379;-76
2022/04/06 12:54:17;;;;;;;12.68;4.78;;;;;;;10.63;100.00;99814.28;10375938;28;20091;-78
2022/04/06 12:59:18;;;;;;;6.40;3.67;;;;;;;10.75;100.00;99814.34;10377343;28;20041;-78
2022/04/06 13:04:19;;;;;;;9.75;4.40;;;;;;;10.85;100.00;99793.03;10375427;28;20044;-78
2022/04/06 13:09:19;;;;;;;3.13;2.92;;;;;;;10.77;100.00;99801.44;10375679;28;20041;-78
2022/04/06 13:14:20;;;;;;;10.95;4.32;;;;;;;10.70;100.00;99792.56;10376503;28;20041;-77
2022/04/06 13:19:21;;;;;;;8.10;3.72;;;;;;;10.73;100.00;99800.25;10377616;28;20046;-77
2022/04/06 13:24:22;;;;;;;11.30;4.47;;;;;;;10.69;100.00;99780.09;10374607;28;20363;-79
2022/04/06 13:29:23;;;;;;;10.25;5.10;;;;;;;10.71;100.00;99776.06;10358724;28;20045;-78
2022/04/06 13:34:24;;;;;;;6.90;4.75;;;;;;;10.79;100.00;99766.03;10341978;28;20038;-77
2022/04/06 13:39:25;;;;;;;5.93;3.95;;;;;;;10.92;100.00;99755.84;10356064;28;20070;-76
2022/04/06 13:44:27;;;;;;;13.18;4.35;;;;;;;11.02;100.00;99768.03;10376269;28;20069;-77
2022/04/06 13:49:27;;;;;;;3.47;3.20;;;;;;;11.02;100.00;99732.81;10374409;28;20046;-75
2022/04/06 13:54:28;;;;;;;4.50;3.38;;;;;;;10.92;100.00;99723.34;10375949;28;20061;-79
2022/04/06 13:59:28;;;;;;;2.95;2.75;;;;;;;10.84;100.00;99739.88;10377660;28;20033;-78
2022/04/06 14:04:29;;;;;;;3.47;2.50;;;;;;;10.82;100.00;99744.72;10375134;28;20528;-78
2022/04/06 14:09:29;;;;;;;7.45;2.88;;;;;;;10.70;100.00;99735.72;10374002;28;20030;-79
2022/04/06 14:14:29;;;;;;;1.92;1.83;;;;;;;10.69;100.00;99728.66;10372657;28;20037;-78
2022/04/06 14:19:30;;;;;;;1.20;1.20;;;;;;;10.71;100.00;99713.81;10373270;28;20486;-77
2022/04/06 14:24:30;;;;;;;1.75;1.65;;;;;;;10.67;100.00;99709.91;10372214;28;20125;-78
2022/04/06 14:29:31;;;;;;;6.88;2.60;;;;;;;10.31;100.00;99688.28;10372744;28;20033;-76
2022/04/06 14:34:31;;;;;;;2.55;1.95;;;;;;;10.12;100.00;99682.81;10372078;28;20099;-75
2022/04/06 14:39:32;;;;;;;2.55;1.77;;;;;;;9.76;100.00;99648.44;10373860;28;20429;-75
2022/04/06 14:44:33;;;;;;;3.50;1.67;;;;;;;9.67;100.00;99661.44;10372122;28;20084;-76
2022/04/06 14:49:34;;;;;;;3.50;1.55;;;;;;;9.90;100.00;99649.97;10373540;28;20540;-78
2022/04/06 14:54:34;;;;;;;8.77;1.45;;;;;;;10.13;100.00;99667.41;10379127;28;20077;-78
2022/04/06 14:59:35;;;;;;;1.35;1.33;;;;;;;10.12;100.00;99660.38;10380750;28;20123;-78
2022/04/06 15:04:39;;;;;;;5.50;1.83;;;;;;;9.91;100.00;99646.22;10380291;28;20038;-77
2022/04/06 15:09:39;;;;;;;1.75;1.65;;;;;;;9.70;100.00;99643.91;10362424;28;20129;-75
2022/04/06 15:14:40;;;;;;;2.85;1.70;;;;;;;9.85;100.00;99644.41;10380017;28;20125;-79
2022/04/06 15:19:40;;;;;;;3.08;2.42;;;;;;;9.66;100.00;99634.59;10379348;28;20525;-76
2022/04/06 15:24:41;;;;;;;2.67;2.47;;;;;;;9.50;100.00;99607.09;10379084;28;20046;-78
2022/04/06 15:29:41;;;;;;;5.10;2.97;;;;;;;9.51;100.00;99606.06;10378318;28;20030;-78
2022/04/06 15:40:01;;;;;;;4.00;3.70;;;;;;;9.64;100.00;99586.19;10378199;28;20029;-77
2022/04/06 15:45:07;;;;;;;3.88;3.03;;;;;;;9.75;100.00;99592.72;10378905;28;20034;-76
2022/04/06 15:50:08;;;;;;;7.88;4.50;;;;;;;9.71;100.00;99581.53;10378842;28;20037;-77
2022/04/06 15:55:09;;;;;;;6.60;3.60;;;;;;;9.95;100.00;99555.47;10378022;28;20105;-76
2022/04/06 16:00:10;;;;;;;8.88;3.20;;;;;;;9.79;100.00;99561.47;10379361;28;20030;-77
2022/04/06 16:05:10;;;;;;;5.63;2.90;;;;;;;9.72;100.00;99550.75;10377187;28;20046;-77
2022/04/06 16:10:11;;;;;;;4.28;3.28;;;;;;;9.75;100.00;99554.88;10381883;28;20442;-78
2022/04/06 16:15:11;;;;;;;3.88;3.63;;;;;;;9.86;100.00;99535.22;10380269;28;20092;-78
2022/04/06 16:20:12;;;;;;;16.23;3.47;;;;;;;9.92;100.00;99533.47;10377978;28;20466;-79
2022/04/06 16:25:14;;;;;;;3.47;2.35;;;;;;;9.77;100.00;99512.25;10377522;28;20073;-77
2022/04/06 16:30:15;;;;;;;3.30;3.10;;;;;;;9.74;100.00;99520.78;10377110;28;20034;-76
2022/04/06 16:35:15;;;;;;;2.78;2.47;;;;;;;9.55;100.00;99491.06;10359353;28;20037;-76
2022/04/06 16:40:15;;;;;;;4.38;3.35;;;;;;;9.39;100.00;99505.16;10377424;28;20061;-77
2022/04/06 16:45:16;;;;;;;4.10;3.80;;;;;;;9.26;100.00;99506.13;10377847;28;20458;-76
2022/04/06 16:55:35;;;;;;;3.20;3.00;;;;;;;9.28;100.00;99514.00;10374867;28;20382;-77
2022/04/06 17:00:36;;;;;;;2.78;2.35;;;;;;;9.54;100.00;99489.41;10376528;28;20046;-78
2022/04/06 17:05:37;;;;;;;2.88;2.67;;;;;;;9.70;100.00;99503.34;10376843;28;20114;-78
2022/04/06 17:10:37;;;;;;;2.53;2.22;;;;;;;9.75;100.00;99487.28;10376811;28;20476;-78
2022/04/06 17:15:38;;;;;;;7.13;3.35;;;;;;;9.67;100.00;99495.72;10376332;28;20462;-77
2022/04/06 17:20:38;;;;;;;6.18;2.10;;;;;;;9.66;100.00;99508.38;10375417;28;20077;-78
2022/04/06 17:25:40;;;;;;;1.70;1.70;;;;;;;9.60;100.00;99482.25;10377114;28;20041;-78
2022/04/06 17:30:41;;;;;;;12.18;3.53;;;;;;;9.61;100.00;99491.22;10375306;28;20037;-78
2022/04/06 17:35:42;;;;;;;2.95;2.63;;;;;;;9.65;100.00;99473.50;10375824;28;20065;-77
2022/04/06 17:40:42;;;;;;;5.68;2.45;;;;;;;9.64;100.00;99472.69;10375495;28;20411;-77
2022/04/06 17:45:43;;;;;;;6.60;2.08;;;;;;;9.74;100.00;99456.75;10376229;28;20046;-78
2022/04/06 17:50:43;;;;;;;3.67;2.05;;;;;;;9.78;100.00;99446.28;10374950;28;20054;-79
2022/04/06 17:55:43;;;;;;;2.63;2.22;;;;;;;9.86;100.00;99445.13;10373310;28;20370;-78
2022/04/06 18:00:44;;;;;;;3.30;3.00;;;;;;;9.85;100.00;99447.03;10376165;28;20041;-76
2022/04/06 18:05:45;;;;;;;4.65;2.50;;;;;;;9.86;100.00;99437.03;10377202;28;20112;-76
2022/04/06 18:16:04;;;;;;;2.72;2.20;;;;;;;9.82;100.00;99428.56;10374981;28;20046;-78
2022/04/06 18:21:06;;;;;;;3.10;2.83;;;;;;;9.64;100.00;99424.03;10357857;28;20058;-78
2022/04/06 18:26:07;;;;;;;5.63;3.50;;;;;;;9.28;100.00;99397.84;10380360;28;20042;-77
2022/04/06 18:31:08;;;;;;;5.53;3.80;;;;;;;9.23;100.00;99427.44;10382960;28;20026;-77
2022/04/06 18:36:09;;;;;;;9.88;4.30;;;;;;;9.21;100.00;99411.44;10380511;28;20074;-77
2022/04/06 18:41:11;;;;;;;2.88;2.63;;;;;;;9.25;100.00;99428.84;10381456;28;20145;-75
2022/04/06 18:46:11;;;;;;;10.95;5.07;;;;;;;9.24;100.00;99443.41;10380648;28;20030;-77
2022/04/06 18:51:12;;;;;;;10.13;3.67;;;;;;;9.17;100.00;99437.25;10382370;28;20034;-78
2022/04/06 18:56:12;;;;;;;12.23;3.78;;;;;;;9.14;100.00;99420.66;10381583;28;20070;-80
2022/04/06 19:01:12;;;;;;;3.83;3.35;;;;;;;9.21;100.00;99432.22;10381189;28;20399;-74
2022/04/06 19:06:13;;;;;;;8.52;4.15;;;;;;;9.28;100.00;99441.06;10380596;28;20036;-79
2022/04/06 19:11:13;;;;;;;4.75;4.28;;;;;;;9.28;100.00;99424.84;10382363;28;20355;-79
2022/04/06 19:16:14;;;;;;;10.95;4.13;;;;;;;9.30;100.00;99425.47;10383847;28;20048;-77
2022/04/06 19:21:14;;;;;;;5.30;4.10;;;;;;;9.27;100.00;99413.22;10381344;28;20560;-75
2022/04/06 19:26:15;;;;;;;11.40;3.22;;;;;;;9.32;100.00;99426.06;10379567;28;20069;-77
2022/04/06 19:31:18;;;;;;;9.07;2.90;;;;;;;9.36;100.00;99407.53;10380576;28;20077;-78
2022/04/06 19:36:21;;;;;;;12.63;4.25;;;;;;;9.48;100.00;99411.13;10382549;28;20050;-79
2022/04/06 19:41:22;;;;;;;7.72;3.55;;;;;;;9.45;100.00;99377.28;10379340;28;20038;-79
2022/04/06 19:46:22;;;;;;;5.68;2.60;;;;;;;9.54;100.00;99397.53;10380389;28;20041;-77
2022/04/06 19:51:23;;;;;;;8.98;3.67;;;;;;;9.62;100.00;99403.69;10381089;28;20033;-78
2022/04/06 19:56:23;;;;;;;14.52;5.03;;;;;;;9.62;100.00;99390.16;10379678;28;20092;-77
2022/04/06 20:01:26;;;;;;;5.57;3.22;;;;;;;9.66;100.00;99388.66;10379066;28;20045;-76
2022/04/06 20:06:26;;;;;;;3.15;2.90;;;;;;;9.64;100.00;99375.38;10380640;28;20037;-80
2022/04/06 20:11:27;;;;;;;13.18;4.22;;;;;;;9.43;100.00;99384.78;10380273;28;20390;-81
2022/04/06 20:16:29;;;;;;;5.18;3.92;;;;;;;9.29;100.00;99378.72;10383495;28;20030;-79
2022/04/06 20:21:29;;;;;;;5.18;3.55;;;;;;;9.34;100.00;99379.91;10386234;28;20050;-79
2022/04/06 20:26:31;;;;;;;3.83;2.88;;;;;;;9.37;100.00;99355.97;10385849;28;20057;-82
2022/04/06 20:31:32;;;;;;;9.90;3.33;;;;;;;9.40;100.00;99341.19;10385172;28;20042;-78
2022/04/06 20:36:33;;;;;;;9.43;3.13;;;;;;;9.38;100.00;99354.94;10377103;28;20045;-78
2022/04/06 20:41:35;;;;;;;6.45;2.88;;;;;;;9.39;100.00;99324.16;10383992;28;20168;-77
2022/04/06 20:46:35;;;;;;;5.78;2.55;;;;;;;9.40;100.00;99315.00;10377376;28;20099;-78
2022/04/06 20:51:36;;;;;;;14.05;4.22;;;;;;;9.38;100.00;99308.16;10375009;28;20259;-78
2022/04/06 20:56:36;;;;;;;9.85;2.53;;;;;;;9.40;100.00;99319.56;10376695;28;20034;-78
2022/04/06 21:01:36;;;;;;;15.23;4.55;;;;;;;9.43;100.00;99301.03;10377196;28;20033;-79
2022/04/06 21:06:37;;;;;;;8.05;2.10;;;;;;;9.51;100.00;99286.38;10376727;28;20425;-78
2022/04/06 21:11:37;;;;;;;2.03;1.92;;;;;;;9.55;100.00;99288.38;10376297;28;20030;-77
2022/04/06 21:16:38;;;;;;;6.20;3.33;;;;;;;9.61;100.00;99300.16;10376637;28;20073;-77
2022/04/06 21:21:38;;;;;;;7.15;3.25;;;;;;;9.64;100.00;99278.06;10374522;28;20132;-76
2022/04/06 21:26:38;;;;;;;4.75;2.58;;;;;;;9.68;100.00;99264.91;10375663;28;20038;-79
2022/04/06 21:31:39;;;;;;;7.40;3.85;;;;;;;9.73;100.00;99263.19;10375343;28;20034;-78
2022/04/06 21:36:39;;;;;;;9.52;3.42;;;;;;;9.75;100.00;99254.81;10374696;28;20117;-77
2022/04/06 21:41:40;;;;;;;12.52;3.55;;;;;;;9.80;100.00;99257.66;10373630;28;20030;-78
2022/04/06 21:46:41;;;;;;;11.63;2.97;;;;;;;9.80;100.00;99237.91;10379142;28;20042;-76
2022/04/06 21:51:42;;;;;;;17.90;5.03;;;;;;;9.80;100.00;99222.50;10384927;28;20068;-77
2022/04/06 21:56:42;;;;;;;23.42;4.68;;;;;;;9.81;100.00;99228.75;10374505;28;20461;-76
2022/04/06 22:01:43;;;;;;;27.50;3.20;;;;;;;9.83;100.00;99230.16;10373707;28;20030;-78
2022/04/06 22:06:43;;;;;;;7.90;3.78;;;;;;;9.83;100.00;99222.06;10373236;28;20034;-79
2022/04/06 22:11:44;;;;;;;11.95;3.22;;;;;;;9.77;100.00;99202.19;10375358;28;20030;-77
2022/04/06 22:16:45;;;;;;;6.75;3.47;;;;;;;9.78;100.00;99197.59;10373833;28;20041;-77
2022/04/06 22:21:49;;;;;;;3.70;3.28;;;;;;;9.80;100.00;99197.38;10373772;28;20129;-76
2022/04/06 22:26:50;;;;;;;16.98;4.60;;;;;;;9.77;100.00;99177.84;10372356;28;20034;-77
2022/04/06 22:31:50;;;;;;;8.20;3.08;;;;;;;9.80;100.00;99173.84;10373378;28;20030;-77
2022/04/06 22:36:51;;;;;;;6.70;3.70;;;;;;;9.89;100.00;99174.31;10373662;28;20458;-77
2022/04/06 22:41:51;;;;;;;7.35;3.03;;;;;;;9.82;100.00;99168.19;10372402;28;20042;-77
2022/04/06 22:46:51;;;;;;;13.13;4.63;;;;;;;9.80;100.00;99154.13;10374377;28;20038;-76
2022/04/06 22:51:52;;;;;;;15.63;3.47;;;;;;;9.87;100.00;99155.63;10373028;28;20117;-76
2022/04/06 22:56:52;;;;;;;5.68;3.45;;;;;;;9.82;100.00;99141.16;10373600;28;20035;-76
2022/04/06 23:01:54;;;;;;;5.55;3.35;;;;;;;9.83;100.00;99127.44;10376335;28;20088;-76
2022/04/06 23:06:55;;;;;;;11.68;3.05;;;;;;;9.81;100.00;99118.72;10373314;28;20069;-77
2022/04/06 23:11:55;;;;;;;13.52;4.30;;;;;;;9.80;100.00;99124.38;10373263;28;20474;-76
2022/04/06 23:16:56;;;;;;;25.02;5.05;;;;;;;9.79;100.00;99107.31;10380369;28;20433;-76
2022/04/06 23:21:56;;;;;;;13.20;4.43;;;;;;;9.76;100.00;99094.25;10380439;28;20176;-76
2022/04/06 23:26:57;;;;;;;13.27;5.82;;;;;;;9.73;100.00;99060.44;10380187;28;20046;-77